createdAt,value
2022-12-09T00:00:10.293Z,8.37
2022-12-09T00:00:43.076Z,8.60
2022-12-09T00:01:19.950Z,9.40
2022-12-09T00:01:52.388Z,8.17
2022-12-09T00:02:24.912Z,8.03
2022-12-09T00:02:59.955Z,8.40
2022-12-09T00:03:32.887Z,8.33
2022-12-09T00:04:05.614Z,7.97
2022-12-09T00:04:40.640Z,8.70
2022-12-09T00:05:13.190Z,8.30
2022-12-09T00:05:45.545Z,8.03
2022-12-09T00:06:21.575Z,7.57
2022-12-09T00:06:54.033Z,8.60
2022-12-09T00:07:26.252Z,8.00
2022-12-09T00:08:01.168Z,7.60
2022-12-09T00:08:33.633Z,7.80
2022-12-09T00:09:06.327Z,8.00
2022-12-09T00:09:41.366Z,7.50
2022-12-09T00:10:13.581Z,8.57
2022-12-09T00:10:45.992Z,8.27
2022-12-09T00:11:24.271Z,8.10
2022-12-09T00:11:56.643Z,8.30
2022-12-09T00:12:28.984Z,7.87
2022-12-09T00:13:03.907Z,7.90
2022-12-09T00:13:36.625Z,8.20
2022-12-09T00:14:10.311Z,7.47
2022-12-09T00:14:45.149Z,8.13
2022-12-09T00:15:17.655Z,7.87
2022-12-09T00:15:50.107Z,8.20
2022-12-09T00:16:25.641Z,8.03
2022-12-09T00:16:58.188Z,8.13
2022-12-09T00:17:31.329Z,7.63
2022-12-09T00:18:06.393Z,8.70
2022-12-09T00:18:38.813Z,7.63
2022-12-09T00:19:13.908Z,8.07
2022-12-09T00:19:46.933Z,8.33
2022-12-09T00:20:19.416Z,7.40
2022-12-09T00:20:54.477Z,8.07
2022-12-09T00:21:32.347Z,8.00
2022-12-09T00:22:04.940Z,8.00
2022-12-09T00:22:39.864Z,7.60
2022-12-09T00:23:12.221Z,8.00
2022-12-09T00:23:44.743Z,7.83
2022-12-09T00:24:19.600Z,7.87
2022-12-09T00:24:51.918Z,7.00
2022-12-09T00:25:24.396Z,7.80
2022-12-09T00:26:00.111Z,7.10
2022-12-09T00:26:35.003Z,8.60
2022-12-09T00:27:07.399Z,8.20
2022-12-09T00:27:42.308Z,8.17
2022-12-09T00:28:14.552Z,7.30
2022-12-09T00:28:47.627Z,7.80
2022-12-09T00:29:22.707Z,7.67
2022-12-09T00:29:55.182Z,7.83
2022-12-09T00:30:27.678Z,8.30
2022-12-09T00:31:03.096Z,7.03
2022-12-09T00:31:36.956Z,6.83
2022-12-09T00:32:10.364Z,9.00
2022-12-09T00:32:45.792Z,8.07
2022-12-09T00:33:18.700Z,7.87
2022-12-09T00:33:51.761Z,7.70
2022-12-09T00:34:26.670Z,7.37
2022-12-09T00:34:58.913Z,7.80
2022-12-09T00:35:31.131Z,8.23
2022-12-09T00:36:07.364Z,7.20
2022-12-09T00:36:42.813Z,7.95
2022-12-09T00:37:15.130Z,7.60
2022-12-09T00:37:47.624Z,7.60
2022-12-09T00:38:23.916Z,7.93
2022-12-09T00:38:57.437Z,7.13
2022-12-09T00:39:29.874Z,7.40
2022-12-09T00:40:05.273Z,7.67
2022-12-09T00:40:37.996Z,7.80
2022-12-09T00:41:10.497Z,7.67
2022-12-09T00:41:49.268Z,7.57
2022-12-09T00:42:21.732Z,7.17
2022-12-09T00:42:54.153Z,7.60
2022-12-09T00:43:29.295Z,7.70
2022-12-09T00:44:01.795Z,7.70
2022-12-09T00:44:34.116Z,7.60
2022-12-09T00:45:11.248Z,7.60
2022-12-09T00:45:43.520Z,7.53
2022-12-09T00:46:16.644Z,7.40
2022-12-09T00:46:52.359Z,6.87
2022-12-09T00:47:24.735Z,7.13
2022-12-09T00:47:57.197Z,7.50
2022-12-09T00:48:34.443Z,7.30
2022-12-09T00:49:06.992Z,8.00
2022-12-09T00:49:41.959Z,7.77
2022-12-09T00:50:14.519Z,7.47
2022-12-09T00:50:47.287Z,7.33
2022-12-09T00:51:24.188Z,6.83
2022-12-09T00:51:56.605Z,7.00
2022-12-09T00:52:28.869Z,7.70
2022-12-09T00:53:03.705Z,6.83
2022-12-09T00:53:35.943Z,6.80
2022-12-09T00:54:11.495Z,7.63
2022-12-09T00:54:43.879Z,7.67
2022-12-09T00:55:16.681Z,7.32
2022-12-09T00:55:51.910Z,7.50
2022-12-09T00:56:25.481Z,6.97
2022-12-09T00:57:00.559Z,8.10
2022-12-09T00:57:35.525Z,8.60
2022-12-09T00:58:07.936Z,9.10
2022-12-09T00:58:40.358Z,9.20
2022-12-09T00:59:15.301Z,8.80
2022-12-09T00:59:47.618Z,8.30
2022-12-09T01:00:20.372Z,8.40
2022-12-09T01:00:56.332Z,8.77
2022-12-09T01:01:30.241Z,8.80
2022-12-09T01:02:02.731Z,9.13
2022-12-09T01:02:39.207Z,8.40
2022-12-09T01:03:13.092Z,9.20
2022-12-09T01:03:45.944Z,9.63
2022-12-09T01:04:20.969Z,8.70
2022-12-09T01:04:53.437Z,9.27
2022-12-09T01:05:25.684Z,9.57
2022-12-09T01:06:00.802Z,8.70
2022-12-09T01:06:33.250Z,8.60
2022-12-09T01:07:05.588Z,8.70
2022-12-09T01:07:40.751Z,8.13
2022-12-09T01:08:13.599Z,8.83
2022-12-09T01:08:46.373Z,8.90
2022-12-09T01:09:22.783Z,8.63
2022-12-09T01:09:55.034Z,8.43
2022-12-09T01:10:28.543Z,8.50
2022-12-09T01:11:03.456Z,7.47
2022-12-09T01:11:36.754Z,7.50
2022-12-09T01:12:11.715Z,8.00
2022-12-09T01:12:46.954Z,7.22
2022-12-09T01:13:19.374Z,7.45
2022-12-09T01:13:57.827Z,7.38
2022-12-09T01:14:30.192Z,7.40
2022-12-09T01:15:02.738Z,6.60
2022-12-09T01:15:37.740Z,7.10
2022-12-09T01:16:21.079Z,6.90
2022-12-09T01:16:56.481Z,6.93
2022-12-09T01:17:28.911Z,6.70
2022-12-09T01:18:01.309Z,6.87
2022-12-09T01:18:33.548Z,6.90
2022-12-09T01:19:10.341Z,6.70
2022-12-09T01:19:42.880Z,7.20
2022-12-09T01:20:15.139Z,7.00
2022-12-09T01:20:59.400Z,6.97
2022-12-09T01:21:32.855Z,7.30
2022-12-09T01:22:05.768Z,7.70
2022-12-09T01:22:40.789Z,7.67
2022-12-09T01:23:13.193Z,7.90
2022-12-09T01:23:45.854Z,7.80
2022-12-09T01:24:20.965Z,7.75
2022-12-09T01:24:55.162Z,8.32
2022-12-09T01:25:27.801Z,7.93
2022-12-09T01:26:02.670Z,7.28
2022-12-09T01:26:35.032Z,7.55
2022-12-09T01:27:10.069Z,7.05
2022-12-09T01:27:44.952Z,7.00
2022-12-09T01:28:17.212Z,7.55
2022-12-09T01:28:53.427Z,7.30
2022-12-09T01:29:25.933Z,7.13
2022-12-09T01:29:58.273Z,7.00
2022-12-09T01:30:33.291Z,7.00
2022-12-09T01:31:07.328Z,7.28
2022-12-09T01:31:40.017Z,6.83
2022-12-09T01:32:15.287Z,7.00
2022-12-09T01:32:47.839Z,7.03
2022-12-09T01:33:20.356Z,7.37
2022-12-09T01:33:57.731Z,6.80
2022-12-09T01:34:31.436Z,7.85
2022-12-09T01:35:05.156Z,7.00
2022-12-09T01:35:40.781Z,6.90
2022-12-09T01:36:18.200Z,7.32
2022-12-09T01:36:50.609Z,6.57
2022-12-09T01:37:22.970Z,6.95
2022-12-09T01:37:57.922Z,7.10
2022-12-09T01:38:30.171Z,6.77
2022-12-09T01:39:02.399Z,6.57
2022-12-09T01:39:37.599Z,6.85
2022-12-09T01:40:17.042Z,7.20
2022-12-09T01:40:49.453Z,6.45
2022-12-09T01:41:22.322Z,6.88
2022-12-09T01:41:57.223Z,6.47
2022-12-09T01:42:29.686Z,7.28
2022-12-09T01:43:04.709Z,6.90
2022-12-09T01:43:37.772Z,6.60
2022-12-09T01:44:15.072Z,6.72
2022-12-09T01:45:30.762Z,6.85
2022-12-09T01:46:06.247Z,6.40
2022-12-09T01:46:39.115Z,6.80
2022-12-09T01:47:24.389Z,6.97
2022-12-09T01:48:00.804Z,6.35
2022-12-09T01:48:35.035Z,6.10
2022-12-09T01:49:13.792Z,6.00
2022-12-09T01:49:48.422Z,6.22
2022-12-09T01:50:21.369Z,6.80
2022-12-09T01:50:59.603Z,5.93
2022-12-09T01:51:32.287Z,6.35
2022-12-09T01:52:12.561Z,6.80
2022-12-09T01:52:45.292Z,6.32
2022-12-09T01:53:19.103Z,7.00
2022-12-09T01:53:54.856Z,6.77
2022-12-09T01:54:27.363Z,6.35
2022-12-09T01:54:59.655Z,7.50
2022-12-09T01:55:32.295Z,7.10
2022-12-09T01:56:10.716Z,7.47
2022-12-09T01:56:43.081Z,6.82
2022-12-09T01:57:15.894Z,7.13
2022-12-09T01:57:51.211Z,6.65
2022-12-09T01:58:26.562Z,6.95
2022-12-09T01:59:01.769Z,6.30
2022-12-09T01:59:36.808Z,6.78
2022-12-09T02:00:11.155Z,6.53
2022-12-09T02:00:49.470Z,6.20
2022-12-09T02:01:27.860Z,7.18
2022-12-09T02:02:01.882Z,6.80
2022-12-09T02:02:36.908Z,7.00
2022-12-09T02:03:12.560Z,6.10
2022-12-09T02:03:45.639Z,7.00
2022-12-09T02:04:18.188Z,7.10
2022-12-09T02:04:53.531Z,7.00
2022-12-09T02:05:29.239Z,6.37
2022-12-09T02:06:04.563Z,7.10
2022-12-09T02:06:40.435Z,6.65
2022-12-09T02:07:15.725Z,7.27
2022-12-09T02:07:48.315Z,7.20
2022-12-09T02:08:24.193Z,6.95
2022-12-09T02:08:57.660Z,6.87
2022-12-09T02:09:32.225Z,7.60
2022-12-09T02:10:11.740Z,7.23
2022-12-09T02:10:56.871Z,7.55
2022-12-09T02:11:40.912Z,7.87
2022-12-09T02:12:15.387Z,7.45
2022-12-09T02:12:53.944Z,7.45
2022-12-09T02:13:37.112Z,7.35
2022-12-09T02:14:17.330Z,6.90
2022-12-09T02:15:02.009Z,7.43
2022-12-09T02:15:41.215Z,7.17
2022-12-09T02:16:17.898Z,7.37
2022-12-09T02:16:57.201Z,8.00
2022-12-09T02:17:36.962Z,7.40
2022-12-09T02:18:15.736Z,6.70
2022-12-09T02:18:55.195Z,7.50
2022-12-09T02:19:41.273Z,7.23
2022-12-09T02:20:19.315Z,7.37
2022-12-09T02:20:59.425Z,7.30
2022-12-09T02:21:35.096Z,7.10
2022-12-09T02:22:08.712Z,7.53
2022-12-09T02:22:47.029Z,7.80
2022-12-09T02:23:23.703Z,7.70
2022-12-09T02:24:03.078Z,7.13
2022-12-09T02:24:41.937Z,7.30
2022-12-09T02:25:22.780Z,6.87
2022-12-09T02:26:00.859Z,7.37
2022-12-09T02:26:39.203Z,6.83
2022-12-09T02:27:17.756Z,6.70
2022-12-09T02:27:57.614Z,6.47
2022-12-09T02:29:02.655Z,6.70
2022-12-09T02:29:51.244Z,6.70
2022-12-09T02:30:25.189Z,7.20
2022-12-09T02:31:04.643Z,7.03
2022-12-09T02:31:58.014Z,6.87
2022-12-09T02:33:05.085Z,7.10
2022-12-09T02:33:46.237Z,6.90
2022-12-09T02:34:23.938Z,6.63
2022-12-09T02:35:08.405Z,7.77
2022-12-09T02:35:47.417Z,7.70
2022-12-09T02:36:21.549Z,7.03
2022-12-09T02:36:59.678Z,7.83
2022-12-09T02:37:38.359Z,7.33
2022-12-09T02:38:12.647Z,7.90
2022-12-09T02:38:45.136Z,7.27
2022-12-09T02:39:21.906Z,7.55
2022-12-09T02:39:57.894Z,8.40
2022-12-09T02:40:34.715Z,6.90
2022-12-09T02:41:12.536Z,7.10
2022-12-09T02:41:50.154Z,7.10
2022-12-09T02:42:24.768Z,7.30
2022-12-09T02:43:01.853Z,7.70
2022-12-09T02:43:38.561Z,7.43
2022-12-09T02:44:16.449Z,7.20
2022-12-09T02:44:50.119Z,6.63
2022-12-09T02:45:26.976Z,6.90
2022-12-09T02:46:03.596Z,7.33
2022-12-09T02:46:36.944Z,7.30
2022-12-09T02:47:16.752Z,7.77
2022-12-09T02:47:54.677Z,6.87
2022-12-09T02:48:32.367Z,7.50
2022-12-09T02:49:06.744Z,7.03
2022-12-09T02:49:44.915Z,7.87
2022-12-09T02:50:21.122Z,7.53
2022-12-09T02:50:54.253Z,7.50
2022-12-09T02:51:30.871Z,7.53
2022-12-09T02:52:04.261Z,7.40
2022-12-09T02:52:37.128Z,7.80
2022-12-09T02:53:14.183Z,7.17
2022-12-09T02:53:49.079Z,7.47
2022-12-09T02:54:22.894Z,6.82
2022-12-09T02:55:00.896Z,7.07
2022-12-09T02:55:33.685Z,7.87
2022-12-09T02:56:07.768Z,8.13
2022-12-09T02:56:45.608Z,8.80
2022-12-09T02:57:19.944Z,8.93
2022-12-09T02:57:54.444Z,8.10
2022-12-09T02:58:29.375Z,8.10
2022-12-09T02:59:02.470Z,8.23
2022-12-09T02:59:35.030Z,9.10
2022-12-09T03:00:11.947Z,8.10
2022-12-09T03:00:45.062Z,8.75
2022-12-09T03:01:21.923Z,9.52
2022-12-09T03:02:04.071Z,9.30
2022-12-09T03:02:38.688Z,9.13
2022-12-09T03:03:17.737Z,8.87
2022-12-09T03:03:51.320Z,9.95
2022-12-09T03:04:24.994Z,8.50
2022-12-09T03:05:11.460Z,9.20
2022-12-09T03:05:49.499Z,8.15
2022-12-09T03:06:24.212Z,8.65
2022-12-09T03:07:02.788Z,8.43
2022-12-09T03:07:41.490Z,8.30
2022-12-09T03:08:17.845Z,9.00
2022-12-09T03:08:58.387Z,8.63
2022-12-09T03:09:34.051Z,9.37
2022-12-09T03:10:11.855Z,9.10
2022-12-09T03:10:54.174Z,8.80
2022-12-09T03:11:27.391Z,8.67
2022-12-09T03:12:02.701Z,8.30
2022-12-09T03:12:38.384Z,8.70
2022-12-09T03:13:12.971Z,9.20
2022-12-09T03:13:52.516Z,8.70
2022-12-09T03:14:31.358Z,8.48
2022-12-09T03:15:06.948Z,9.13
2022-12-09T03:15:44.150Z,8.70
2022-12-09T03:16:25.246Z,9.10
2022-12-09T03:17:02.350Z,9.77
2022-12-09T03:17:36.887Z,9.13
2022-12-09T03:18:11.095Z,10.70
2022-12-09T03:18:50.027Z,10.73
2022-12-09T03:19:27.226Z,9.40
2022-12-09T03:20:08.943Z,11.00
2022-12-09T03:20:42.290Z,9.83
2022-12-09T03:21:17.893Z,10.63
2022-12-09T03:21:54.043Z,10.20
2022-12-09T03:22:29.283Z,10.47
2022-12-09T03:23:06.489Z,10.05
2022-12-09T03:23:39.190Z,10.32
2022-12-09T03:24:13.636Z,10.17
2022-12-09T03:24:53.095Z,10.27
2022-12-09T03:25:29.816Z,10.53
2022-12-09T03:26:04.651Z,10.85
2022-12-09T03:26:40.748Z,10.30
2022-12-09T03:27:16.404Z,10.93
2022-12-09T03:27:52.905Z,10.60
2022-12-09T03:28:31.983Z,11.30
2022-12-09T03:29:08.141Z,11.07
2022-12-09T03:29:43.383Z,11.10
2022-12-09T03:30:19.209Z,10.03
2022-12-09T03:30:53.951Z,11.40
2022-12-09T03:31:28.344Z,10.93
2022-12-09T03:32:03.717Z,11.93
2022-12-09T03:32:38.480Z,11.10
2022-12-09T03:33:12.195Z,10.23
2022-12-09T03:33:48.113Z,10.33
2022-12-09T03:34:23.437Z,10.10
2022-12-09T03:35:04.566Z,11.20
2022-12-09T03:35:41.809Z,10.37
2022-12-09T03:36:14.881Z,10.37
2022-12-09T03:36:49.206Z,11.00
2022-12-09T03:37:24.357Z,9.63
2022-12-09T03:37:57.610Z,10.93
2022-12-09T03:38:33.228Z,10.67
2022-12-09T03:39:09.920Z,10.10
2022-12-09T03:39:43.251Z,10.50
2022-12-09T03:40:18.787Z,10.60
2022-12-09T03:40:58.754Z,9.30
2022-12-09T03:41:32.669Z,9.80
2022-12-09T03:42:07.874Z,10.00
2022-12-09T03:42:54.243Z,10.80
2022-12-09T03:43:28.262Z,10.37
2022-12-09T03:44:05.278Z,10.07
2022-12-09T03:44:42.712Z,10.30
2022-12-09T03:45:16.560Z,9.80
2022-12-09T03:45:49.103Z,9.80
2022-12-09T03:46:25.186Z,10.90
2022-12-09T03:46:57.665Z,10.23
2022-12-09T03:47:30.373Z,9.83
2022-12-09T03:48:06.302Z,9.80
2022-12-09T03:48:38.537Z,9.83
2022-12-09T03:49:14.270Z,9.57
2022-12-09T03:49:46.491Z,10.43
2022-12-09T03:50:22.541Z,10.20
2022-12-09T03:50:59.675Z,10.30
2022-12-09T03:51:35.321Z,10.13
2022-12-09T03:52:10.771Z,9.87
2022-12-09T03:52:48.391Z,9.70
2022-12-09T03:53:22.724Z,9.37
2022-12-09T03:53:59.431Z,9.73
2022-12-09T03:54:37.993Z,9.73
2022-12-09T03:55:28.705Z,9.57
2022-12-09T03:56:10.411Z,9.73
2022-12-09T03:56:45.640Z,10.37
2022-12-09T03:57:19.874Z,9.77
2022-12-09T03:57:58.790Z,9.60
2022-12-09T03:58:34.048Z,9.70
2022-12-09T03:59:13.843Z,9.50
2022-12-09T03:59:50.916Z,9.70
2022-12-09T04:00:23.283Z,9.43
2022-12-09T04:00:58.571Z,9.53
2022-12-09T04:01:32.886Z,9.30
2022-12-09T04:02:08.586Z,9.80
2022-12-09T04:02:41.086Z,9.60
2022-12-09T04:03:14.846Z,10.53
2022-12-09T04:03:52.240Z,9.10
2022-12-09T04:04:24.707Z,9.70
2022-12-09T04:04:57.204Z,10.37
2022-12-09T04:05:35.109Z,9.40
2022-12-09T04:06:08.370Z,10.07
2022-12-09T04:06:40.701Z,9.20
2022-12-09T04:07:15.919Z,10.00
2022-12-09T04:07:48.190Z,9.67
2022-12-09T04:08:20.775Z,9.20
2022-12-09T04:09:00.868Z,9.60
2022-12-09T04:09:34.567Z,9.67
2022-12-09T04:10:11.267Z,9.00
2022-12-09T04:10:43.731Z,9.57
2022-12-09T04:11:16.000Z,9.10
2022-12-09T04:11:50.971Z,9.53
2022-12-09T04:12:23.657Z,9.07
2022-12-09T04:12:55.927Z,9.93
2022-12-09T04:13:30.744Z,9.63
2022-12-09T04:14:03.723Z,8.43
2022-12-09T04:14:36.509Z,9.33
2022-12-09T04:15:12.721Z,8.70
2022-12-09T04:15:44.978Z,9.00
2022-12-09T04:16:17.249Z,8.90
2022-12-09T04:16:52.454Z,8.97
2022-12-09T04:17:24.952Z,8.73
2022-12-09T04:17:57.493Z,9.27
2022-12-09T04:18:32.948Z,8.87
2022-12-09T04:19:05.614Z,8.77
2022-12-09T04:19:38.203Z,8.80
2022-12-09T04:20:14.897Z,8.80
2022-12-09T04:20:50.591Z,9.23
2022-12-09T04:21:22.854Z,9.13
2022-12-09T04:21:57.726Z,9.50
2022-12-09T04:22:30.630Z,8.97
2022-12-09T04:23:03.020Z,9.47
2022-12-09T04:23:40.857Z,8.43
2022-12-09T04:24:17.982Z,8.07
2022-12-09T04:24:50.355Z,9.57
2022-12-09T04:25:22.887Z,9.00
2022-12-09T04:25:57.836Z,9.33
2022-12-09T04:26:30.382Z,9.60
2022-12-09T04:27:03.010Z,9.80
2022-12-09T04:27:38.265Z,9.03
2022-12-09T04:28:10.557Z,9.30
2022-12-09T04:28:43.286Z,9.30
2022-12-09T04:29:18.370Z,9.57
2022-12-09T04:29:50.713Z,9.60
2022-12-09T04:30:23.007Z,9.27
2022-12-09T04:30:58.082Z,9.77
2022-12-09T04:31:30.841Z,10.10
2022-12-09T04:32:03.551Z,9.20
2022-12-09T04:32:38.741Z,10.10
2022-12-09T04:33:11.369Z,9.00
2022-12-09T04:33:44.182Z,8.07
2022-12-09T04:34:16.455Z,8.87
2022-12-09T04:34:51.621Z,8.60
2022-12-09T04:35:24.939Z,8.97
2022-12-09T04:36:05.045Z,8.83
2022-12-09T04:36:40.042Z,9.50
2022-12-09T04:37:13.244Z,8.57
2022-12-09T04:37:48.092Z,8.80
2022-12-09T04:38:20.335Z,9.00
2022-12-09T04:38:52.548Z,9.30
2022-12-09T04:39:27.718Z,8.80
2022-12-09T04:40:00.230Z,9.57
2022-12-09T04:40:32.630Z,9.10
2022-12-09T04:41:07.830Z,8.80
2022-12-09T04:41:40.072Z,8.63
2022-12-09T04:42:12.284Z,8.70
2022-12-09T04:42:47.428Z,8.87
2022-12-09T04:43:19.807Z,9.50
2022-12-09T04:43:52.036Z,9.10
2022-12-09T04:44:26.916Z,8.60
2022-12-09T04:44:59.422Z,9.20
2022-12-09T04:45:31.927Z,8.03
2022-12-09T04:46:09.001Z,9.17
2022-12-09T04:46:41.403Z,8.60
2022-12-09T04:47:13.705Z,8.70
2022-12-09T04:47:49.436Z,8.77
2022-12-09T04:48:21.851Z,9.47
2022-12-09T04:48:56.877Z,8.40
2022-12-09T04:49:31.071Z,8.53
2022-12-09T04:50:03.729Z,7.67
2022-12-09T04:50:38.706Z,8.50
2022-12-09T04:51:15.494Z,8.03
2022-12-09T04:51:47.816Z,8.73
2022-12-09T04:52:22.989Z,8.43
2022-12-09T04:52:55.338Z,8.77
2022-12-09T04:53:28.012Z,8.30
2022-12-09T04:54:03.081Z,8.10
2022-12-09T04:54:35.658Z,8.60
2022-12-09T04:55:08.989Z,7.80
2022-12-09T04:55:43.876Z,7.87
2022-12-09T04:56:19.096Z,8.40
2022-12-09T04:56:51.505Z,7.77
2022-12-09T04:57:26.625Z,9.07
2022-12-09T04:57:58.877Z,8.27
2022-12-09T04:58:31.854Z,8.57
2022-12-09T04:59:07.940Z,7.50
2022-12-09T04:59:40.210Z,8.73
2022-12-09T05:00:14.175Z,8.37
2022-12-09T05:00:49.523Z,8.13
2022-12-09T05:01:29.805Z,7.37
2022-12-09T05:02:02.997Z,9.07
2022-12-09T05:02:38.220Z,8.20
2022-12-09T05:03:10.684Z,8.40
2022-12-09T05:03:43.711Z,8.90
2022-12-09T05:04:18.857Z,8.73
2022-12-09T05:04:51.617Z,8.53
2022-12-09T05:05:24.341Z,8.67
2022-12-09T05:05:59.333Z,8.33
2022-12-09T05:06:34.547Z,8.90
2022-12-09T05:07:09.709Z,8.80
2022-12-09T05:07:42.397Z,8.23
2022-12-09T05:08:14.963Z,8.33
2022-12-09T05:08:50.684Z,9.33
2022-12-09T05:09:23.250Z,7.90
2022-12-09T05:09:55.913Z,8.57
2022-12-09T05:10:30.968Z,8.77
2022-12-09T05:11:04.098Z,7.60
2022-12-09T05:11:36.877Z,8.17
2022-12-09T05:12:12.046Z,7.77
2022-12-09T05:12:44.304Z,8.20
2022-12-09T05:13:16.707Z,7.50
2022-12-09T05:13:51.918Z,8.20
2022-12-09T05:14:24.259Z,8.10
2022-12-09T05:14:59.106Z,8.00
2022-12-09T05:15:31.682Z,8.00
2022-12-09T05:16:12.174Z,8.53
2022-12-09T05:16:50.838Z,7.60
2022-12-09T05:17:23.408Z,8.50
2022-12-09T05:17:56.144Z,7.77
2022-12-09T05:18:31.614Z,7.60
2022-12-09T05:19:04.165Z,8.03
2022-12-09T05:19:36.752Z,7.30
2022-12-09T05:20:13.164Z,7.33
2022-12-09T05:20:46.094Z,8.10
2022-12-09T05:21:20.127Z,7.80
2022-12-09T05:21:58.124Z,8.53
2022-12-09T05:22:31.475Z,8.17
2022-12-09T05:23:09.141Z,8.07
2022-12-09T05:23:45.099Z,8.03
2022-12-09T05:24:17.822Z,8.53
2022-12-09T05:24:50.351Z,8.83
2022-12-09T05:25:25.552Z,8.80
2022-12-09T05:25:57.849Z,9.07
2022-12-09T05:26:30.179Z,8.20
2022-12-09T05:27:05.391Z,7.83
2022-12-09T05:27:37.748Z,7.53
2022-12-09T05:28:10.139Z,8.50
2022-12-09T05:28:42.472Z,8.00
2022-12-09T05:29:22.526Z,8.37
2022-12-09T05:29:55.941Z,7.60
2022-12-09T05:30:28.378Z,8.57
2022-12-09T05:31:04.195Z,8.00
2022-12-09T05:31:36.605Z,8.03
2022-12-09T05:32:10.059Z,7.60
2022-12-09T05:32:46.209Z,7.90
2022-12-09T05:33:18.616Z,7.47
2022-12-09T05:33:54.748Z,7.60
2022-12-09T05:34:27.399Z,7.60
2022-12-09T05:34:59.800Z,7.37
2022-12-09T05:35:42.608Z,8.13
2022-12-09T05:36:24.319Z,7.20
2022-12-09T05:37:02.305Z,7.60
2022-12-09T05:37:35.050Z,7.47
2022-12-09T05:38:07.404Z,7.20
2022-12-09T05:38:42.566Z,7.33
2022-12-09T05:39:15.287Z,8.10
2022-12-09T05:39:47.646Z,7.67
2022-12-09T05:40:22.974Z,7.50
2022-12-09T05:40:55.325Z,8.00
2022-12-09T05:41:28.010Z,8.20
2022-12-09T05:42:03.142Z,7.40
2022-12-09T05:42:41.124Z,8.00
2022-12-09T05:43:13.890Z,7.90
2022-12-09T05:43:49.519Z,7.33
2022-12-09T05:44:22.029Z,7.83
2022-12-09T05:44:57.651Z,8.03
2022-12-09T05:45:30.136Z,7.40
2022-12-09T05:46:03.053Z,7.70
2022-12-09T05:46:38.222Z,7.20
2022-12-09T05:47:10.702Z,7.90
2022-12-09T05:47:43.347Z,7.80
2022-12-09T05:48:18.701Z,7.00
2022-12-09T05:48:51.225Z,6.73
2022-12-09T05:49:26.890Z,7.77
2022-12-09T05:50:04.399Z,7.67
2022-12-09T05:50:40.048Z,7.60
2022-12-09T05:51:17.462Z,7.50
2022-12-09T05:51:49.755Z,7.30
2022-12-09T05:52:24.625Z,7.93
2022-12-09T05:52:59.757Z,7.50
2022-12-09T05:53:32.261Z,7.30
2022-12-09T05:54:08.562Z,7.13
2022-12-09T05:54:41.624Z,7.30
2022-12-09T05:55:14.250Z,7.80
2022-12-09T05:55:49.249Z,8.10
2022-12-09T05:56:23.487Z,7.83
2022-12-09T05:56:57.442Z,7.67
2022-12-09T05:57:32.551Z,7.97
2022-12-09T05:58:05.231Z,8.80
2022-12-09T05:58:37.549Z,8.00
2022-12-09T05:59:13.214Z,8.13
2022-12-09T05:59:45.503Z,8.30
2022-12-09T06:00:18.699Z,7.90
2022-12-09T06:00:56.858Z,8.27
2022-12-09T06:01:29.963Z,8.00
2022-12-09T06:02:08.320Z,8.20
2022-12-09T06:02:44.762Z,8.60
2022-12-09T06:03:17.893Z,8.37
2022-12-09T06:03:54.214Z,8.33
2022-12-09T06:04:27.093Z,8.33
2022-12-09T06:04:59.582Z,8.30
2022-12-09T06:05:35.377Z,8.40
2022-12-09T06:06:09.482Z,7.60
2022-12-09T06:06:45.142Z,8.30
2022-12-09T06:07:17.970Z,7.70
2022-12-09T06:07:53.154Z,8.23
2022-12-09T06:08:28.300Z,7.80
2022-12-09T06:09:01.791Z,8.33
2022-12-09T06:09:34.575Z,7.80
2022-12-09T06:10:11.660Z,9.00
2022-12-09T06:10:44.291Z,8.10
2022-12-09T06:11:18.313Z,8.90
2022-12-09T06:11:53.657Z,8.13
2022-12-09T06:12:26.283Z,8.20
2022-12-09T06:12:58.916Z,8.50
2022-12-09T06:13:34.114Z,7.63
2022-12-09T06:14:08.315Z,8.43
2022-12-09T06:14:43.245Z,8.50
2022-12-09T06:15:21.259Z,8.60
2022-12-09T06:15:54.121Z,8.70
2022-12-09T06:16:29.274Z,9.10
2022-12-09T06:17:01.760Z,9.80
2022-12-09T06:17:34.364Z,8.63
2022-12-09T06:18:09.744Z,8.60
2022-12-09T06:18:42.674Z,10.00
2022-12-09T06:19:15.336Z,9.70
2022-12-09T06:19:50.571Z,9.20
2022-12-09T06:20:22.945Z,8.90
2022-12-09T06:20:55.236Z,8.90
2022-12-09T06:21:30.521Z,9.20
2022-12-09T06:22:02.888Z,9.27
2022-12-09T06:22:35.644Z,8.87
2022-12-09T06:23:13.103Z,8.53
2022-12-09T06:23:45.640Z,8.57
2022-12-09T06:24:20.699Z,8.83
2022-12-09T06:24:57.095Z,8.70
2022-12-09T06:25:29.694Z,9.30
2022-12-09T06:26:02.324Z,8.97
2022-12-09T06:26:37.551Z,9.27
2022-12-09T06:27:09.925Z,8.80
2022-12-09T06:27:42.818Z,8.90
2022-12-09T06:28:19.712Z,9.40
2022-12-09T06:28:52.883Z,8.47
2022-12-09T06:29:28.203Z,9.20
2022-12-09T06:30:00.699Z,8.40
2022-12-09T06:30:35.960Z,9.07
2022-12-09T06:31:08.299Z,9.00
2022-12-09T06:31:41.418Z,8.00
2022-12-09T06:32:16.540Z,9.20
2022-12-09T06:32:49.153Z,9.13
2022-12-09T06:33:52.357Z,8.00
2022-12-09T06:34:16.577Z,8.25
2022-12-09T06:34:49.089Z,9.60
2022-12-09T06:35:22.079Z,9.10
2022-12-09T06:35:57.251Z,8.73
2022-12-09T06:36:31.183Z,8.93
2022-12-09T06:37:04.008Z,8.20
2022-12-09T06:37:39.156Z,8.70
2022-12-09T06:38:14.182Z,8.67
2022-12-09T06:38:49.507Z,8.90
2022-12-09T06:39:21.796Z,8.67
2022-12-09T06:39:54.420Z,8.70
2022-12-09T06:40:29.570Z,8.90
2022-12-09T06:41:06.468Z,8.70
2022-12-09T06:41:43.944Z,9.37
2022-12-09T06:42:16.262Z,8.37
2022-12-09T06:42:50.561Z,9.67
2022-12-09T06:43:25.927Z,9.70
2022-12-09T06:43:58.895Z,8.48
2022-12-09T06:44:34.262Z,9.30
2022-12-09T06:45:08.111Z,8.80
2022-12-09T06:45:40.600Z,8.90
2022-12-09T06:46:16.237Z,9.23
2022-12-09T06:46:48.766Z,8.83
2022-12-09T06:47:24.154Z,9.80
2022-12-09T06:47:56.574Z,9.00
2022-12-09T06:48:31.655Z,8.47
2022-12-09T06:49:04.563Z,9.00
2022-12-09T06:49:37.144Z,8.67
2022-12-09T06:50:13.169Z,8.33
2022-12-09T06:50:45.858Z,9.33
2022-12-09T06:51:18.534Z,8.80
2022-12-09T06:51:53.534Z,8.00
2022-12-09T06:52:25.895Z,9.60
2022-12-09T06:52:58.537Z,9.37
2022-12-09T06:53:36.211Z,8.80
2022-12-09T06:54:10.304Z,8.85
2022-12-09T06:54:45.569Z,9.23
2022-12-09T06:55:18.140Z,8.93
2022-12-09T06:55:50.706Z,8.33
2022-12-09T06:56:26.248Z,8.90
2022-12-09T06:56:58.953Z,8.20
2022-12-09T06:57:34.037Z,8.90
2022-12-09T06:58:06.568Z,8.55
2022-12-09T06:58:39.297Z,9.07
2022-12-09T06:59:14.457Z,8.57
2022-12-09T06:59:46.924Z,8.13
2022-12-09T07:00:20.205Z,8.70
2022-12-09T07:00:55.350Z,9.50
2022-12-09T07:01:28.510Z,9.18
2022-12-09T07:02:03.756Z,8.75
2022-12-09T07:02:37.320Z,9.73
2022-12-09T07:03:11.934Z,9.03
2022-12-09T07:03:49.214Z,8.35
2022-12-09T07:04:23.208Z,8.48
2022-12-09T07:04:56.454Z,8.95
2022-12-09T07:05:31.625Z,8.85
2022-12-09T07:06:04.747Z,9.02
2022-12-09T07:06:41.161Z,9.20
2022-12-09T07:07:15.151Z,8.68
2022-12-09T07:07:53.950Z,8.68
2022-12-09T07:08:26.371Z,9.27
2022-12-09T07:09:04.139Z,9.15
2022-12-09T07:09:39.282Z,9.05
2022-12-09T07:10:12.244Z,9.25
2022-12-09T07:10:51.735Z,8.95
2022-12-09T07:11:29.289Z,8.83
2022-12-09T07:12:04.869Z,8.60
2022-12-09T07:12:37.270Z,9.20
2022-12-09T07:13:09.742Z,9.43
2022-12-09T07:13:44.867Z,8.73
2022-12-09T07:14:18.332Z,9.10
2022-12-09T07:14:53.582Z,9.43
2022-12-09T07:15:25.875Z,9.10
2022-12-09T07:16:00.957Z,8.30
2022-12-09T07:16:35.140Z,8.93
2022-12-09T07:17:10.564Z,9.63
2022-12-09T07:17:43.186Z,9.35
2022-12-09T07:18:16.020Z,9.10
2022-12-09T07:18:51.216Z,9.43
2022-12-09T07:19:24.003Z,9.20
2022-12-09T07:20:04.905Z,9.40
2022-12-09T07:20:39.094Z,8.90
2022-12-09T07:21:15.841Z,9.27
2022-12-09T07:21:49.395Z,8.93
2022-12-09T07:22:24.401Z,9.52
2022-12-09T07:22:56.824Z,9.97
2022-12-09T07:23:31.929Z,9.63
2022-12-09T07:24:07.716Z,9.03
2022-12-09T07:24:43.905Z,9.45
2022-12-09T07:25:16.376Z,10.13
2022-12-09T07:25:56.465Z,9.70
2022-12-09T07:26:33.685Z,9.13
2022-12-09T07:27:10.816Z,9.20
2022-12-09T07:27:47.915Z,9.80
2022-12-09T07:28:20.352Z,9.40
2022-12-09T07:28:53.138Z,8.43
2022-12-09T07:29:28.277Z,9.37
2022-12-09T07:30:01.250Z,9.40
2022-12-09T07:30:36.302Z,9.73
2022-12-09T07:31:17.803Z,8.23
2022-12-09T07:31:53.450Z,9.00
2022-12-09T07:32:26.016Z,9.20
2022-12-09T07:32:58.499Z,8.70
2022-12-09T07:33:33.727Z,7.87
2022-12-09T07:34:06.730Z,8.43
2022-12-09T07:34:43.019Z,9.17
2022-12-09T07:35:16.014Z,8.80
2022-12-09T07:35:49.002Z,8.32
2022-12-09T07:36:25.298Z,9.40
2022-12-09T07:36:57.998Z,9.37
2022-12-09T07:37:32.983Z,9.83
2022-12-09T07:38:05.561Z,9.20
2022-12-09T07:38:38.166Z,10.10
2022-12-09T07:39:18.576Z,9.20
2022-12-09T07:39:50.848Z,9.57
2022-12-09T07:40:23.407Z,9.50
2022-12-09T07:40:58.429Z,8.90
2022-12-09T07:41:31.063Z,9.07
2022-12-09T07:42:03.845Z,8.50
2022-12-09T07:42:39.213Z,8.90
2022-12-09T07:43:11.717Z,8.70
2022-12-09T07:43:44.579Z,8.40
2022-12-09T07:44:19.895Z,9.00